createdAt,value
2022-09-17T00:01:44.937Z,69.58
2022-09-17T00:04:13.340Z,69.39
2022-09-17T00:06:43.943Z,69.31
2022-09-17T00:09:12.479Z,69.25
2022-09-17T00:11:43.869Z,69.19
2022-09-17T00:14:16.721Z,69.11
2022-09-17T00:16:47.470Z,69.17
2022-09-17T00:19:18.459Z,68.99
2022-09-17T00:21:48.411Z,69.04
2022-09-17T00:24:18.647Z,68.86
2022-09-17T00:26:47.116Z,68.66
2022-09-17T00:29:16.457Z,68.80
2022-09-17T00:31:45.328Z,68.85
2022-09-17T00:34:13.873Z,68.73
2022-09-17T00:36:43.188Z,68.72
2022-09-17T00:39:16.071Z,68.82
2022-09-17T00:41:45.460Z,69.16
2022-09-17T00:44:44.202Z,68.94
2022-09-17T00:47:21.906Z,68.95
2022-09-17T00:49:52.459Z,69.04
2022-09-17T00:52:25.293Z,68.77
2022-09-17T00:55:01.079Z,69.05
2022-09-17T00:57:32.162Z,69.21
2022-09-17T01:00:01.410Z,69.20
2022-09-17T01:02:30.076Z,68.93
2022-09-17T01:04:58.467Z,68.71
2022-09-17T01:07:45.578Z,68.79
2022-09-17T01:10:35.071Z,68.78
2022-09-17T01:13:13.834Z,68.58
2022-09-17T01:15:50.553Z,68.72
2022-09-17T01:18:33.750Z,68.87
2022-09-17T01:21:37.974Z,68.65
2022-09-17T01:24:44.846Z,68.54
2022-09-17T01:28:05.851Z,68.88
2022-09-17T01:30:44.549Z,68.95
2022-09-17T01:33:19.008Z,68.87
2022-09-17T01:35:54.419Z,68.99
2022-09-17T01:38:28.586Z,68.89
2022-09-17T01:41:06.620Z,68.73
2022-09-17T01:43:44.583Z,68.98
2022-09-17T01:46:21.981Z,69.01
2022-09-17T01:48:57.690Z,68.97
2022-09-17T01:51:30.011Z,68.89
2022-09-17T01:54:02.858Z,68.73
2022-09-17T01:56:37.592Z,68.79
2022-09-17T01:59:12.154Z,68.39
2022-09-17T02:01:45.248Z,68.56
2022-09-17T02:04:22.103Z,68.70
2022-09-17T02:06:57.540Z,68.75
2022-09-17T02:09:32.495Z,68.87
2022-09-17T02:12:05.136Z,68.82
2022-09-17T02:14:39.638Z,68.50
2022-09-17T02:17:17.143Z,68.45
2022-09-17T02:19:45.785Z,68.47
2022-09-17T02:22:23.348Z,68.45
2022-09-17T02:25:01.921Z,68.71
2022-09-17T02:27:38.486Z,68.64
2022-09-17T02:30:08.314Z,68.64
2022-09-17T02:32:38.089Z,68.50
2022-09-17T02:35:08.486Z,68.31
2022-09-17T02:37:37.164Z,68.45
2022-09-17T02:40:07.640Z,68.77
2022-09-17T02:42:55.626Z,68.96
2022-09-17T02:45:38.270Z,68.73
2022-09-17T02:48:22.248Z,68.94
2022-09-17T02:51:10.269Z,68.96
2022-09-17T02:53:47.505Z,68.98
2022-09-17T02:56:22.643Z,68.86
2022-09-17T02:58:59.532Z,69.17
2022-09-17T03:01:36.467Z,69.22
2022-09-17T03:04:10.577Z,68.95
2022-09-17T03:06:39.414Z,69.09
2022-09-17T03:09:08.490Z,69.51
2022-09-17T03:11:36.859Z,69.09
2022-09-17T03:14:05.785Z,69.47
2022-09-17T03:16:34.191Z,69.28
2022-09-17T03:19:03.039Z,69.36
2022-09-17T03:21:33.099Z,69.42
2022-09-17T03:24:01.461Z,69.36
2022-09-17T03:26:30.273Z,69.47
2022-09-17T03:28:59.046Z,69.65
2022-09-17T03:31:29.434Z,69.56
2022-09-17T03:33:58.715Z,69.50
2022-09-17T03:36:27.899Z,69.32
2022-09-17T03:38:58.211Z,69.17
2022-09-17T03:41:27.544Z,69.30
2022-09-17T03:43:56.325Z,68.82
2022-09-17T03:46:25.091Z,68.77
2022-09-17T03:48:53.396Z,68.68
2022-09-17T03:51:22.520Z,68.88
2022-09-17T03:53:51.349Z,68.74
2022-09-17T03:56:21.377Z,68.46
2022-09-17T03:58:49.678Z,68.42
2022-09-17T04:01:18.720Z,68.17
2022-09-17T04:03:47.422Z,68.28
2022-09-17T04:06:15.751Z,68.54
2022-09-17T04:08:44.995Z,68.13
2022-09-17T04:11:13.410Z,68.25
2022-09-17T04:13:43.875Z,68.47
2022-09-17T04:16:13.164Z,68.34
2022-09-17T04:18:41.510Z,68.41
2022-09-17T04:21:10.481Z,68.50
2022-09-17T04:23:39.189Z,68.51
2022-09-17T04:26:07.662Z,68.40
2022-09-17T04:28:36.845Z,68.63
2022-09-17T04:31:07.185Z,68.89
2022-09-17T04:33:36.026Z,68.68
2022-09-17T04:36:04.911Z,68.45
2022-09-17T04:38:33.937Z,68.58
2022-09-17T04:41:02.395Z,68.84
2022-09-17T04:43:31.473Z,68.58
2022-09-17T04:45:59.793Z,68.52
2022-09-17T04:48:30.307Z,68.73
2022-09-17T04:50:59.060Z,68.76
2022-09-17T04:53:27.362Z,68.68
2022-09-17T04:55:56.020Z,68.55
2022-09-17T04:58:24.867Z,68.75
2022-09-17T05:00:53.296Z,68.32
2022-09-17T05:03:22.053Z,68.73
2022-09-17T05:05:52.263Z,68.60
2022-09-17T05:08:22.881Z,68.64
2022-09-17T05:10:52.171Z,68.80
2022-09-17T05:13:20.549Z,68.51
2022-09-17T05:15:49.503Z,68.52
2022-09-17T05:18:17.847Z,68.47
2022-09-17T05:20:46.617Z,68.53
2022-09-17T05:23:16.265Z,68.43
2022-09-17T05:25:45.170Z,68.37
2022-09-17T05:28:13.467Z,68.72
2022-09-17T05:30:42.844Z,68.49
2022-09-17T05:33:11.377Z,68.54
2022-09-17T05:35:40.774Z,68.82
2022-09-17T05:38:09.125Z,68.70
2022-09-17T05:40:39.354Z,69.02
2022-09-17T05:43:09.630Z,69.03
2022-09-17T05:45:38.853Z,68.96
2022-09-17T05:48:10.022Z,68.80
2022-09-17T05:50:38.750Z,68.69
2022-09-17T05:53:09.041Z,68.67
2022-09-17T05:55:39.737Z,68.82
2022-09-17T05:58:12.481Z,68.57
2022-09-17T06:00:43.052Z,68.38
2022-09-17T06:03:12.954Z,68.80
2022-09-17T06:05:41.573Z,68.48
2022-09-17T06:08:10.785Z,68.61
2022-09-17T06:10:41.417Z,68.41
2022-09-17T06:13:10.671Z,68.43
2022-09-17T06:15:39.023Z,68.40
2022-09-17T06:18:08.010Z,68.21
2022-09-17T06:20:36.667Z,68.42
2022-09-17T06:23:04.989Z,68.40
2022-09-17T06:25:34.267Z,68.15
2022-09-17T06:28:05.177Z,68.25
2022-09-17T06:30:33.868Z,68.18
2022-09-17T06:33:02.698Z,68.16
2022-09-17T06:35:31.891Z,67.95
2022-09-17T06:38:00.170Z,67.82
2022-09-17T06:40:29.747Z,67.87
2022-09-17T06:42:58.601Z,67.67
2022-09-17T06:45:29.467Z,67.53
2022-09-17T06:47:58.004Z,67.30
2022-09-17T06:50:27.029Z,67.27
2022-09-17T06:52:55.856Z,66.77
2022-09-17T06:55:24.673Z,66.71
2022-09-17T06:57:53.866Z,66.47
2022-09-17T07:00:22.205Z,66.35
2022-09-17T07:02:59.457Z,65.94
2022-09-17T07:05:29.802Z,65.96
2022-09-17T07:07:58.575Z,65.68
2022-09-17T07:10:27.942Z,65.60
2022-09-17T07:12:56.319Z,65.48
2022-09-17T07:15:25.700Z,65.69
2022-09-17T07:17:54.771Z,65.30
2022-09-17T07:20:24.456Z,65.64
2022-09-17T07:22:57.540Z,65.53
2022-09-17T07:25:26.564Z,65.27
2022-09-17T07:27:57.120Z,64.98
2022-09-17T07:30:25.798Z,65.21
2022-09-17T07:32:54.176Z,65.16
2022-09-17T07:35:24.683Z,64.89
2022-09-17T07:37:53.007Z,64.94
2022-09-17T07:40:22.437Z,64.37
2022-09-17T07:42:50.926Z,64.76
2022-09-17T07:45:19.983Z,64.50
2022-09-17T07:47:48.682Z,64.47
2022-09-17T07:50:18.119Z,64.53
2022-09-17T07:52:49.718Z,64.29
2022-09-17T07:55:18.434Z,64.30
2022-09-17T07:57:52.456Z,64.04
2022-09-17T08:00:21.741Z,63.67
2022-09-17T08:02:54.488Z,63.84
2022-09-17T08:05:23.823Z,63.76
2022-09-17T08:07:54.850Z,63.45
2022-09-17T08:10:24.303Z,62.89
2022-09-17T08:12:57.519Z,63.14
2022-09-17T08:15:26.969Z,62.85
2022-09-17T08:17:55.325Z,62.55
2022-09-17T08:20:26.714Z,62.75
2022-09-17T08:23:03.358Z,62.61
2022-09-17T08:25:31.910Z,62.97
2022-09-17T08:28:00.916Z,63.11
2022-09-17T08:30:29.191Z,63.39
2022-09-17T08:32:58.677Z,63.79
2022-09-17T08:35:28.056Z,63.77
2022-09-17T08:37:57.210Z,64.27
2022-09-17T08:40:27.805Z,64.57
2022-09-17T08:43:00.921Z,64.81
2022-09-17T08:45:30.778Z,65.19
2022-09-17T08:48:05.446Z,65.19
2022-09-17T08:50:39.409Z,65.35
2022-09-17T08:53:18.974Z,65.57
2022-09-17T08:55:55.623Z,65.71
2022-09-17T08:58:54.879Z,66.03
2022-09-17T09:01:33.316Z,66.67
2022-09-17T09:04:45.202Z,67.12
2022-09-17T09:07:19.047Z,67.42
2022-09-17T09:09:54.039Z,67.52
2022-09-17T09:12:27.975Z,68.02
2022-09-17T09:15:00.994Z,68.09
2022-09-17T09:17:39.991Z,68.38
2022-09-17T09:20:17.445Z,68.44
2022-09-17T09:22:51.930Z,68.62
2022-09-17T09:25:24.718Z,68.47
2022-09-17T09:28:08.456Z,68.50
2022-09-17T09:30:52.024Z,68.20
2022-09-17T09:33:27.718Z,68.12
2022-09-17T09:35:57.202Z,68.46
2022-09-17T09:38:34.178Z,68.55
2022-09-17T09:41:10.614Z,68.53
2022-09-17T09:46:48.060Z,68.54
2022-09-17T09:49:30.609Z,68.57
2022-09-17T09:52:14.753Z,69.20
2022-09-17T09:54:56.339Z,69.23
2022-09-17T09:57:36.745Z,69.18
2022-09-17T10:00:28.925Z,69.58
2022-09-17T10:03:04.076Z,69.45
2022-09-17T10:05:33.373Z,69.70
2022-09-17T10:08:02.556Z,69.69
2022-09-17T10:10:30.931Z,69.84
2022-09-17T10:13:08.615Z,69.28
2022-09-17T10:15:38.841Z,69.25
2022-09-17T10:18:18.018Z,69.67
2022-09-17T10:20:55.426Z,69.79
2022-09-17T10:23:25.442Z,70.07
2022-09-17T10:25:56.048Z,70.11
2022-09-17T10:28:32.558Z,70.14
2022-09-17T10:31:09.009Z,69.94
2022-09-17T10:33:41.069Z,69.78
2022-09-17T10:36:14.720Z,70.23
2022-09-17T10:38:46.136Z,70.13
2022-09-17T10:41:18.988Z,70.05
2022-09-17T10:43:47.782Z,70.12
2022-09-17T10:46:24.050Z,70.29
2022-09-17T10:49:10.533Z,70.39
2022-09-17T10:51:40.131Z,70.53
2022-09-17T10:54:24.404Z,70.96
2022-09-17T10:56:57.604Z,70.40
2022-09-17T10:59:48.447Z,70.53
2022-09-17T11:02:40.781Z,70.72
2022-09-17T11:05:28.136Z,70.65
2022-09-17T11:08:02.347Z,70.88
2022-09-17T11:10:43.830Z,71.08
2022-09-17T11:13:23.677Z,70.45
2022-09-17T11:16:08.773Z,69.28
2022-09-17T11:18:41.961Z,69.00
2022-09-17T11:21:32.044Z,68.74
2022-09-17T11:24:31.059Z,69.23
2022-09-17T11:27:08.799Z,69.67
2022-09-17T11:29:54.883Z,69.57
2022-09-17T11:32:39.670Z,69.27
2022-09-17T11:35:13.142Z,69.48
2022-09-17T11:37:49.013Z,69.43
2022-09-17T11:40:22.780Z,69.18
2022-09-17T11:42:58.441Z,69.84
2022-09-17T11:45:32.212Z,69.05
2022-09-17T11:48:07.390Z,68.96
2022-09-17T11:50:41.987Z,69.01
2022-09-17T11:53:19.962Z,68.88
2022-09-17T11:55:53.760Z,68.70
2022-09-17T11:58:29.167Z,68.24
2022-09-17T12:01:04.109Z,68.15
2022-09-17T12:03:36.943Z,67.66
2022-09-17T12:06:13.271Z,67.54
2022-09-17T12:08:50.270Z,67.29
2022-09-17T12:11:22.717Z,66.74
2022-09-17T12:13:55.259Z,66.50
2022-09-17T12:16:28.024Z,66.31
2022-09-17T12:19:01.994Z,66.12
2022-09-17T12:21:37.594Z,65.80
2022-09-17T12:24:16.980Z,65.68
2022-09-17T12:27:10.654Z,66.13
2022-09-17T12:30:04.067Z,66.26
2022-09-17T12:32:57.743Z,66.01
2022-09-17T12:36:07.265Z,65.38
2022-09-17T12:39:03.333Z,64.76
2022-09-17T12:41:44.352Z,64.65
2022-09-17T12:44:29.486Z,63.94
2022-09-17T12:47:14.428Z,63.68
2022-09-17T12:50:00.266Z,63.67
2022-09-17T12:52:41.727Z,63.32
2022-09-17T12:55:49.019Z,63.32
2022-09-17T12:58:32.794Z,63.03
2022-09-17T13:01:06.725Z,62.84
2022-09-17T13:03:41.355Z,63.10
2022-09-17T13:06:43.339Z,62.91
2022-09-17T13:09:42.294Z,62.35
2022-09-17T13:12:17.945Z,61.82
2022-09-17T13:15:18.055Z,61.50
2022-09-17T13:18:12.781Z,60.99
2022-09-17T13:20:56.269Z,60.36
2022-09-17T13:23:34.417Z,59.85
2022-09-17T13:26:06.229Z,59.04
2022-09-17T13:28:44.646Z,58.44
2022-09-17T13:31:24.052Z,57.40
2022-09-17T13:33:57.518Z,56.94
2022-09-17T13:36:46.958Z,55.27
2022-09-17T13:39:45.087Z,54.91
2022-09-17T13:42:19.376Z,54.86
2022-09-17T13:44:52.319Z,54.26
2022-09-17T13:47:29.545Z,53.95
2022-09-17T13:50:03.023Z,54.41
2022-09-17T13:52:37.862Z,54.35
2022-09-17T13:55:08.932Z,53.14
2022-09-17T13:57:50.612Z,52.21
2022-09-17T14:00:52.575Z,51.28
2022-09-17T14:03:58.253Z,50.86
2022-09-17T14:06:55.871Z,50.87
2022-09-17T14:09:39.328Z,51.06
2022-09-17T14:12:41.755Z,51.38
2022-09-17T14:15:43.716Z,51.82
2022-09-17T14:18:43.745Z,52.65
2022-09-17T14:21:27.024Z,52.50
2022-09-17T14:24:00.821Z,52.32
2022-09-17T14:27:14.361Z,51.72
2022-09-17T14:29:56.743Z,51.82
2022-09-17T14:32:33.613Z,51.92
2022-09-17T14:35:05.627Z,52.20
2022-09-17T14:37:36.930Z,52.29
2022-09-17T14:40:10.269Z,51.96
2022-09-17T14:42:40.459Z,52.07
2022-09-17T14:45:17.708Z,52.59
2022-09-17T14:47:46.669Z,52.87
2022-09-17T14:50:23.263Z,52.96
2022-09-17T14:52:55.486Z,52.45
2022-09-17T14:55:26.497Z,52.89
2022-09-17T14:57:59.186Z,53.10
2022-09-17T15:00:32.967Z,53.08
2022-09-17T15:03:02.512Z,53.09
2022-09-17T15:05:33.782Z,53.21
2022-09-17T15:08:18.248Z,53.06
2022-09-17T15:10:50.247Z,52.86
2022-09-17T15:13:22.530Z,52.85
2022-09-17T15:16:01.814Z,52.83
2022-09-17T15:18:38.062Z,53.50
2022-09-17T15:21:22.231Z,53.44
2022-09-17T15:23:59.318Z,53.44
2022-09-17T15:26:32.009Z,52.95
2022-09-17T15:29:03.409Z,53.26
2022-09-17T15:31:32.132Z,53.39
2022-09-17T15:34:02.113Z,53.54
2022-09-17T15:36:32.017Z,54.27
2022-09-17T15:39:02.646Z,54.54
2022-09-17T15:41:34.304Z,54.53
2022-09-17T15:44:29.802Z,54.62
2022-09-17T15:47:32.543Z,55.19
2022-09-17T15:50:20.279Z,55.04
2022-09-17T15:52:49.362Z,55.29
2022-09-17T15:55:37.411Z,55.44
2022-09-17T15:58:20.455Z,55.84
2022-09-17T16:00:54.136Z,55.82
2022-09-17T16:04:11.387Z,55.51
2022-09-17T16:06:40.733Z,55.23
2022-09-17T16:09:41.261Z,54.87
2022-09-17T16:12:14.175Z,55.20
2022-09-17T16:14:48.848Z,55.69
2022-09-17T16:17:36.595Z,55.59
2022-09-17T16:20:14.450Z,55.48
2022-09-17T16:22:42.942Z,55.20
2022-09-17T16:25:12.569Z,55.38
2022-09-17T16:27:49.621Z,54.95
2022-09-17T16:30:20.897Z,54.81
2022-09-17T16:32:50.489Z,54.80
2022-09-17T16:35:21.298Z,54.74
2022-09-17T16:37:51.337Z,54.92
2022-09-17T16:40:20.339Z,55.32
2022-09-17T16:42:51.234Z,55.44
2022-09-17T16:45:20.220Z,55.60
2022-09-17T16:47:49.388Z,56.19
2022-09-17T16:50:19.867Z,56.25
2022-09-17T16:52:49.018Z,56.71
2022-09-17T16:55:18.603Z,56.63
2022-09-17T16:57:47.955Z,56.84
2022-09-17T17:00:21.165Z,57.07
2022-09-17T17:02:55.243Z,57.39
2022-09-17T17:05:25.032Z,57.48
2022-09-17T17:07:55.170Z,57.47
2022-09-17T17:10:24.074Z,57.78
2022-09-17T17:12:53.330Z,57.85
2022-09-17T17:15:24.120Z,57.78
2022-09-17T17:17:52.605Z,58.18
2022-09-17T17:20:21.366Z,58.37
2022-09-17T17:22:51.167Z,58.26
2022-09-17T17:25:20.173Z,58.65
2022-09-17T17:27:48.996Z,58.72
2022-09-17T17:30:18.834Z,59.06
2022-09-17T17:32:53.622Z,59.23
2022-09-17T17:35:22.968Z,59.27
2022-09-17T17:37:51.801Z,59.57
2022-09-17T17:40:20.403Z,59.85
2022-09-17T17:42:53.459Z,60.13
2022-09-17T17:45:22.085Z,60.19
2022-09-17T17:47:53.718Z,60.30
2022-09-17T17:50:22.432Z,60.16
2022-09-17T17:52:50.800Z,60.02
2022-09-17T17:55:20.090Z,60.15
2022-09-17T17:57:48.942Z,60.13
2022-09-17T18:00:18.747Z,60.29
2022-09-17T18:02:47.116Z,60.13
2022-09-17T18:05:17.695Z,60.63
2022-09-17T18:07:46.025Z,60.67
2022-09-17T18:10:15.314Z,60.68
2022-09-17T18:12:50.476Z,60.93
2022-09-17T18:15:19.527Z,60.77
2022-09-17T18:17:50.077Z,60.88
2022-09-17T18:23:12.399Z,61.45
2022-09-17T18:25:41.178Z,61.49
2022-09-17T18:28:09.671Z,61.48
2022-09-17T18:30:38.995Z,61.75
2022-09-17T18:33:07.942Z,61.66
2022-09-17T18:35:38.414Z,61.78
2022-09-17T18:38:07.055Z,61.95
2022-09-17T18:40:36.250Z,61.73
2022-09-17T18:43:05.515Z,61.82
2022-09-17T18:45:33.868Z,61.92
2022-09-17T18:48:03.615Z,62.35
2022-09-17T18:50:31.905Z,62.43
2022-09-17T18:53:02.561Z,62.19
2022-09-17T18:55:31.485Z,62.26
2022-09-17T18:57:59.809Z,62.82
2022-09-17T19:00:28.982Z,62.65
2022-09-17T19:02:57.342Z,62.60
2022-09-17T19:05:27.301Z,63.14
2022-09-17T19:07:55.594Z,63.15
2022-09-17T19:10:26.453Z,63.24
2022-09-17T19:12:55.668Z,64.04
2022-09-17T19:15:24.091Z,64.30
2022-09-17T19:17:54.555Z,64.75
2022-09-17T19:20:23.471Z,65.01
2022-09-17T19:22:52.018Z,65.48
2022-09-17T19:25:21.345Z,65.77
2022-09-17T19:27:54.046Z,66.06
2022-09-17T19:30:23.556Z,66.22
2022-09-17T19:32:52.240Z,66.36
2022-09-17T19:35:21.295Z,66.57
2022-09-17T19:37:50.660Z,66.76
2022-09-17T19:40:20.080Z,66.88
2022-09-17T19:42:54.631Z,66.64
2022-09-17T19:45:24.027Z,66.80
2022-09-17T19:47:56.266Z,67.09
2022-09-17T19:50:25.559Z,67.15
2022-09-17T19:52:53.901Z,67.00
2022-09-17T19:55:25.296Z,67.35
2022-09-17T19:57:55.142Z,67.04
2022-09-17T20:00:23.867Z,67.25
2022-09-17T20:02:53.145Z,67.74
2022-09-17T20:05:21.879Z,67.65
2022-09-17T20:07:50.596Z,67.83
2022-09-17T20:10:18.901Z,67.73
2022-09-17T20:12:48.155Z,67.67
2022-09-17T20:15:18.139Z,68.03
2022-09-17T20:17:46.832Z,68.09
2022-09-17T20:20:16.146Z,67.92
2022-09-17T20:22:44.426Z,67.99
2022-09-17T20:25:13.755Z,68.41
2022-09-17T20:27:42.050Z,68.10
2022-09-17T20:30:11.894Z,68.40
2022-09-17T20:32:42.070Z,68.52
2022-09-17T20:35:10.480Z,68.63
2022-09-17T20:40:27.549Z,69.02
2022-09-17T20:42:56.465Z,68.89
2022-09-17T20:45:24.814Z,68.84
2022-09-17T20:47:56.649Z,69.31
2022-09-17T20:50:26.482Z,69.15
2022-09-17T20:52:54.770Z,69.38
2022-09-17T20:55:23.501Z,69.20
2022-09-17T20:57:53.669Z,69.54
2022-09-17T21:00:25.601Z,69.60
2022-09-17T21:02:56.346Z,69.61
2022-09-17T21:05:25.173Z,69.63
2022-09-17T21:07:54.204Z,70.03
2022-09-17T21:10:22.903Z,70.18
2022-09-17T21:12:51.228Z,70.10
2022-09-17T21:15:20.260Z,70.40
2022-09-17T21:17:49.283Z,70.52
2022-09-17T21:20:18.946Z,70.27
2022-09-17T21:22:48.458Z,70.37
2022-09-17T21:25:17.287Z,70.13
2022-09-17T21:27:46.654Z,70.19
2022-09-17T21:30:15.405Z,70.44
2022-09-17T21:32:43.770Z,70.47
2022-09-17T21:35:12.496Z,70.61
2022-09-17T21:37:42.137Z,70.59
2022-09-17T21:40:11.721Z,70.77
2022-09-17T21:42:40.103Z,71.01
2022-09-17T21:45:09.108Z,70.93
2022-09-17T21:47:37.456Z,70.84
2022-09-17T21:50:07.322Z,71.09
2022-09-17T21:52:36.353Z,70.96
2022-09-17T21:55:07.001Z,70.72
2022-09-17T21:57:36.031Z,70.67
2022-09-17T22:00:07.691Z,71.00
2022-09-17T22:02:37.432Z,71.12
2022-09-17T22:05:07.201Z,71.21
2022-09-17T22:07:36.255Z,71.01
2022-09-17T22:10:07.319Z,71.33
2022-09-17T22:12:35.651Z,70.94
2022-09-17T22:15:05.260Z,71.09
2022-09-17T22:17:33.766Z,70.71
2022-09-17T22:20:03.074Z,70.63
2022-09-17T22:22:31.866Z,70.66
2022-09-17T22:25:00.196Z,70.70
2022-09-17T22:27:32.715Z,70.47
2022-09-17T22:30:01.217Z,70.56
2022-09-17T22:32:30.086Z,70.53
2022-09-17T22:34:58.757Z,70.66
2022-09-17T22:37:28.790Z,70.37
2022-09-17T22:39:57.277Z,70.33
2022-09-17T22:42:26.424Z,70.43
2022-09-17T22:44:56.550Z,70.62
2022-09-17T22:47:24.879Z,70.35
2022-09-17T22:49:54.072Z,70.65
2022-09-17T22:52:22.410Z,70.28
2022-09-17T22:54:51.486Z,70.27
2022-09-17T22:57:19.836Z,70.16
2022-09-17T22:59:48.582Z,70.15
2022-09-17T23:02:19.168Z,70.42
2022-09-17T23:04:47.727Z,70.33
2022-09-17T23:07:16.565Z,70.45
2022-09-17T23:09:44.880Z,70.64
2022-09-17T23:12:13.910Z,70.35
2022-09-17T23:14:42.593Z,70.55
2022-09-17T23:17:11.281Z,70.51
2022-09-17T23:19:41.363Z,70.48
2022-09-17T23:22:10.058Z,70.54
2022-09-17T23:24:38.431Z,70.62
2022-09-17T23:27:07.802Z,70.71
2022-09-17T23:29:36.082Z,70.67
2022-09-17T23:32:05.223Z,70.74
2022-09-17T23:34:35.365Z,70.74
2022-09-17T23:37:05.060Z,70.70
2022-09-17T23:39:34.063Z,70.78
2022-09-17T23:42:02.418Z,70.49
2022-09-17T23:44:31.161Z,70.44
2022-09-17T23:47:00.138Z,70.68
2022-09-17T23:49:28.667Z,70.75
2022-09-17T23:51:57.704Z,70.84
2022-09-17T23:54:27.897Z,70.61
2022-09-17T23:56:56.924Z,70.64
2022-09-17T23:59:26.022Z,70.66
